Time;durP1;ratioP1;P1;durP2;ratioP2;P2;SDS_P1;SDS_P2;PMS_P1;PMS_P2;Temp;Humidity;BMP_temperature;BMP_pressure;BME280_temperature;BME280_humidity;BME280_pressure;Samples;Min_cycle;Max_cycle;Signal;HPM_P1;HPM_P2
2023/05/30 00:00:00;;;;;;;;;;;;;;;9.94;72.92;102614.75;5057288;28;1305;-73
2023/05/30 00:02:25;;;;;;;;;;;;;;;9.91;72.80;102606.28;5054841;28;1281;-73
2023/05/30 00:04:51;;;;;;;;;;;;;;;9.89;73.48;102606.34;5059942;28;1252;-73
2023/05/30 00:07:17;;;;;;;;;;;;;;;9.81;74.34;102600.72;5056724;28;1262;-73
2023/05/30 00:09:43;;;;;;;;;;;;;;;9.76;73.85;102608.72;5056707;28;1947;-73
2023/05/30 00:12:08;;;;;;;;;;;;;;;9.76;72.63;102607.91;5049156;28;1429;-74
2023/05/30 00:14:36;;;;;;;;;;;;;;;9.77;73.29;102612.16;5036862;28;1334;-72
2023/05/30 00:17:02;;;;;;;;;;;;;;;9.75;73.58;102612.25;5055931;28;1121;-73
2023/05/30 00:19:28;;;;;;;;;;;;;;;9.76;74.01;102613.06;5043685;28;1081;-72
2023/05/30 00:21:54;;;;;;;;;;;;;;;9.73;73.16;102608.03;5056113;28;1403;-72
2023/05/30 00:24:20;;;;;;;;;;;;;;;9.76;73.57;102618.25;5052206;28;1088;-74
2023/05/30 00:26:45;;;;;;;;;;;;;;;9.74;72.82;102618.31;5060614;28;1132;-73
2023/05/30 00:29:10;;;;;;;;;;;;;;;9.68;74.54;102615.19;5058912;28;1115;-72
2023/05/30 00:31:36;;;;;;;;;;;;;;;9.64;75.13;102616.28;5054070;28;1926;-72
2023/05/30 00:34:01;;;;;;;;;;;;;;;9.61;75.39;102621.59;5054195;28;1320;-74
2023/05/30 00:36:26;;;;;;;;;;;;;;;9.56;74.68;102612.28;5051339;28;887;-73
2023/05/30 00:38:52;;;;;;;;;;;;;;;9.54;74.18;102613.28;5035398;28;1335;-72
2023/05/30 00:41:17;;;;;;;;;;;;;;;9.50;75.33;102616.94;5034070;28;1204;-72
2023/05/30 00:43:42;;;;;;;;;;;;;;;9.46;74.28;102616.25;5039990;28;1192;-72
2023/05/30 00:46:10;;;;;;;;;;;;;;;9.46;75.30;102621.44;5059285;28;1213;-73
2023/05/30 00:48:36;;;;;;;;;;;;;;;9.43;74.95;102611.22;5029441;28;1255;-72
2023/05/30 00:51:02;;;;;;;;;;;;;;;9.48;74.78;102614.41;5039176;28;1968;-74
2023/05/30 00:53:28;;;;;;;;;;;;;;;9.49;74.68;102621.28;5056429;28;1113;-73
2023/05/30 00:55:53;;;;;;;;;;;;;;;9.44;74.98;102623.25;5056601;28;1483;-73
2023/05/30 00:58:19;;;;;;;;;;;;;;;9.43;75.08;102616.41;5055194;28;1558;-72
2023/05/30 01:00:45;;;;;;;;;;;;;;;9.42;75.46;102614.72;5036772;28;1583;-73
2023/05/30 01:03:10;;;;;;;;;;;;;;;9.40;74.10;102619.13;5057436;28;1474;-72
2023/05/30 01:05:36;;;;;;;;;;;;;;;9.38;74.81;102618.34;5058559;28;1201;-72
2023/05/30 01:08:01;;;;;;;;;;;;;;;9.36;74.36;102625.38;5047088;28;1299;-73
2023/05/30 01:10:29;;;;;;;;;;;;;;;9.38;74.51;102623.53;5060793;28;1971;-72
2023/05/30 01:13:02;;;;;;;;;;;;;;;9.30;75.82;102621.31;5053252;28;1317;-73
2023/05/30 01:15:29;;;;;;;;;;;;;;;9.28;75.28;102628.31;5041301;28;1534;-72
2023/05/30 01:18:07;;;;;;;;;;;;;;;9.28;75.91;102627.47;5046736;28;1507;-72
2023/05/30 01:20:37;;;;;;;;;;;;;;;9.23;77.28;102627.72;5046982;28;1281;-72
2023/05/30 01:23:21;;;;;;;;;;;;;;;9.18;76.86;102631.44;5048264;28;1064;-73
2023/05/30 01:25:57;;;;;;;;;;;;;;;9.16;75.86;102628.06;5041535;28;1209;-72
2023/05/30 01:28:23;;;;;;;;;;;;;;;9.15;76.23;102626.38;5050763;28;1208;-72
2023/05/30 01:30:49;;;;;;;;;;;;;;;9.13;76.10;102633.38;5051613;28;1903;-72
2023/05/30 01:33:16;;;;;;;;;;;;;;;9.14;76.63;102630.72;5058409;28;1277;-72
2023/05/30 01:35:43;;;;;;;;;;;;;;;9.10;76.64;102630.94;5034932;28;1222;-72
2023/05/30 01:38:08;;;;;;;;;;;;;;;9.10;76.16;102634.34;5043347;28;1364;-72
2023/05/30 01:40:34;;;;;;;;;;;;;;;9.09;75.95;102635.28;5053168;28;1412;-72
2023/05/30 01:43:09;;;;;;;;;;;;;;;9.13;76.60;102643.75;5048118;28;1092;-72
2023/05/30 01:45:47;;;;;;;;;;;;;;;9.13;75.89;102635.97;5032452;28;1236;-72
2023/05/30 01:48:12;;;;;;;;;;;;;;;9.14;77.10;102635.06;5044021;28;1220;-72
2023/05/30 01:50:41;;;;;;;;;;;;;;;9.08;76.99;102641.34;5038154;28;1997;-71
2023/05/30 01:53:09;;;;;;;;;;;;;;;9.09;76.42;102634.44;5049007;28;1484;-72
2023/05/30 01:55:35;;;;;;;;;;;;;;;9.02;77.10;102637.31;5032457;28;1226;-72
2023/05/30 01:58:01;;;;;;;;;;;;;;;8.99;77.98;102641.78;5049742;28;1769;-72
2023/05/30 02:00:27;;;;;;;;;;;;;;;8.96;77.70;102642.75;5047427;28;1229;-72
2023/05/30 02:02:53;;;;;;;;;;;;;;;8.91;77.83;102644.72;5026502;28;1310;-71
2023/05/30 02:05:18;;;;;;;;;;;;;;;8.86;78.10;102646.66;5047765;28;1425;-72
2023/05/30 02:07:43;;;;;;;;;;;;;;;8.81;77.66;102643.44;5048380;28;1185;-72
2023/05/30 02:10:08;;;;;;;;;;;;;;;8.83;77.46;102641.66;5037280;28;1960;-73
2023/05/30 02:12:34;;;;;;;;;;;;;;;8.78;78.87;102641.84;5044110;28;1113;-72
2023/05/30 02:14:59;;;;;;;;;;;;;;;8.71;79.07;102642.19;5047734;28;1562;-72
2023/05/30 02:17:25;;;;;;;;;;;;;;;8.70;77.27;102648.25;5044763;28;1682;-73
2023/05/30 02:19:50;;;;;;;;;;;;;;;8.72;78.48;102643.88;5047969;28;1097;-74
2023/05/30 02:22:17;;;;;;;;;;;;;;;8.68;80.21;102640.56;5038798;28;1343;-71
2023/05/30 02:24:42;;;;;;;;;;;;;;;8.72;79.52;102651.63;5052080;28;1111;-72
2023/05/30 02:27:08;;;;;;;;;;;;;;;8.72;79.08;102657.66;5061883;28;1230;-73
2023/05/30 02:29:33;;;;;;;;;;;;;;;8.72;80.27;102649.06;5051114;28;1918;-73
2023/05/30 02:31:58;;;;;;;;;;;;;;;8.65;81.61;102647.63;5053624;28;1076;-71
2023/05/30 02:34:24;;;;;;;;;;;;;;;8.65;79.50;102651.03;5038176;28;1188;-72
2023/05/30 02:36:49;;;;;;;;;;;;;;;8.66;80.66;102652.75;5052408;28;1106;-72
2023/05/30 02:39:14;;;;;;;;;;;;;;;8.64;81.34;102651.97;5050174;28;1164;-72
2023/05/30 02:41:39;;;;;;;;;;;;;;;8.64;79.98;102656.28;5044916;28;1176;-73
2023/05/30 02:44:06;;;;;;;;;;;;;;;8.66;80.61;102659.66;5056719;28;1178;-72
2023/05/30 02:46:32;;;;;;;;;;;;;;;8.66;80.36;102644.13;5055183;28;1164;-73
2023/05/30 02:48:57;;;;;;;;;;;;;;;8.68;81.01;102648.34;5050387;28;1072;-73
2023/05/30 02:51:23;;;;;;;;;;;;;;;8.66;82.79;102654.47;5053288;28;1886;-72
2023/05/30 02:53:48;;;;;;;;;;;;;;;8.65;80.98;102647.63;5046886;28;1213;-72
2023/05/30 02:56:13;;;;;;;;;;;;;;;8.64;80.13;102644.19;5031201;28;1430;-72
2023/05/30 02:58:38;;;;;;;;;;;;;;;8.63;81.74;102650.28;5058796;28;1245;-72
2023/05/30 03:01:03;;;;;;;;;;;;;;;8.62;81.70;102653.78;5033656;28;1396;-73
2023/05/30 03:03:29;;;;;;;;;;;;;;;8.63;81.40;102644.28;5049083;28;1711;-73
2023/05/30 03:05:57;;;;;;;;;;;;;;;8.62;81.66;102647.78;5044430;28;1547;-72
2023/05/30 03:08:22;;;;;;;;;;;;;;;8.65;81.67;102647.63;5031255;28;1427;-72
2023/05/30 03:10:47;;;;;;;;;;;;;;;8.64;81.57;102645.94;5031580;28;1894;-72
2023/05/30 03:13:12;;;;;;;;;;;;;;;8.63;81.50;102646.88;5048926;28;1303;-73
2023/05/30 03:15:39;;;;;;;;;;;;;;;8.64;81.26;102651.97;5054536;28;1201;-72
2023/05/30 03:18:04;;;;;;;;;;;;;;;8.65;82.14;102657.97;5047222;28;1547;-72
2023/05/30 03:20:31;;;;;;;;;;;;;;;8.67;81.51;102651.00;5047731;28;1506;-72
2023/05/30 03:22:56;;;;;;;;;;;;;;;8.68;82.08;102657.84;5029954;28;1460;-71
2023/05/30 03:25:21;;;;;;;;;;;;;;;8.72;82.39;102667.16;5050508;28;1228;-72
2023/05/30 03:27:50;;;;;;;;;;;;;;;8.72;82.24;102656.81;5054225;28;1547;-73
2023/05/30 03:30:15;;;;;;;;;;;;;;;8.73;81.45;102653.31;5051668;28;1906;-72
2023/05/30 03:32:41;;;;;;;;;;;;;;;8.78;80.94;102659.13;5041322;28;1539;-72
2023/05/30 03:35:06;;;;;;;;;;;;;;;8.81;82.11;102658.97;5048419;28;1160;-72
2023/05/30 03:37:32;;;;;;;;;;;;;;;8.84;81.30;102658.84;5039068;28;1384;-72
2023/05/30 03:39:57;;;;;;;;;;;;;;;8.87;81.98;102661.28;5055190;28;1150;-72
2023/05/30 03:42:22;;;;;;;;;;;;;;;8.90;82.01;102666.34;5046000;28;1190;-72
2023/05/30 03:44:47;;;;;;;;;;;;;;;8.90;82.73;102668.94;5041816;28;1283;-73
2023/05/30 03:47:12;;;;;;;;;;;;;;;8.93;82.09;102667.94;5055942;28;1329;-72
2023/05/30 03:49:38;;;;;;;;;;;;;;;8.97;82.24;102675.50;5051578;28;1926;-72
2023/05/30 03:52:03;;;;;;;;;;;;;;;9.01;81.73;102679.63;5046146;28;1280;-74
2023/05/30 03:54:29;;;;;;;;;;;;;;;9.04;80.97;102676.88;5034548;28;1447;-72
2023/05/30 03:56:55;;;;;;;;;;;;;;;9.11;81.77;102671.44;5057738;28;1523;-72
2023/05/30 03:59:20;;;;;;;;;;;;;;;9.10;82.00;102677.53;5050708;28;1420;-72
2023/05/30 04:01:45;;;;;;;;;;;;;;;9.14;80.98;102676.47;5036396;28;1404;-72
2023/05/30 04:04:10;;;;;;;;;;;;;;;9.16;81.75;102674.66;5051028;28;1249;-72
2023/05/30 04:06:36;;;;;;;;;;;;;;;9.17;81.82;102677.16;5054137;28;1073;-71
2023/05/30 04:09:03;;;;;;;;;;;;;;;9.19;81.19;102684.88;5045457;28;1252;-72
2023/05/30 04:11:28;;;;;;;;;;;;;;;9.19;80.88;102685.72;5038799;28;1997;-73
2023/05/30 04:13:53;;;;;;;;;;;;;;;9.23;81.12;102686.38;5049188;28;1534;-71
2023/05/30 04:16:19;;;;;;;;;;;;;;;9.26;80.89;102681.09;5049943;28;1711;-72
2023/05/30 04:18:46;;;;;;;;;;;;;;;9.26;81.04;102678.50;5057071;28;1069;-71
2023/05/30 04:21:14;;;;;;;;;;;;;;;9.26;81.15;102681.09;5059632;28;1101;-72
2023/05/30 04:23:42;;;;;;;;;;;;;;;9.28;81.51;102684.44;5049015;28;1118;-70
2023/05/30 04:26:09;;;;;;;;;;;;;;;9.33;81.13;102682.47;5057616;28;1075;-72
2023/05/30 04:28:36;;;;;;;;;;;;;;;9.36;81.03;102692.72;5045508;28;1448;-73
2023/05/30 04:31:04;;;;;;;;;;;;;;;9.39;80.76;102687.38;5030685;28;1961;-73
2023/05/30 04:33:34;;;;;;;;;;;;;;;9.44;81.19;102688.00;5054748;28;966;-73
2023/05/30 04:35:59;;;;;;;;;;;;;;;9.49;80.11;102688.63;5056313;28;1086;-73
2023/05/30 04:38:26;;;;;;;;;;;;;;;9.52;80.04;102688.50;5049301;28;1168;-71
2023/05/30 04:40:52;;;;;;;;;;;;;;;9.56;80.74;102697.78;5059165;28;1131;-73
2023/05/30 04:43:19;;;;;;;;;;;;;;;9.57;80.26;102689.09;5063020;28;1077;-72
2023/05/30 04:45:49;;;;;;;;;;;;;;;9.58;80.39;102688.19;5043918;28;1430;-72
2023/05/30 04:48:15;;;;;;;;;;;;;;;9.61;80.13;102686.34;5039317;28;1272;-71
2023/05/30 04:50:40;;;;;;;;;;;;;;;9.65;79.74;102687.91;5053087;28;1940;-71
2023/05/30 04:53:06;;;;;;;;;;;;;;;9.63;79.89;102689.72;5048300;28;1149;-71
2023/05/30 04:55:31;;;;;;;;;;;;;;;9.61;80.26;102692.38;5054218;28;1180;-71
2023/05/30 04:57:57;;;;;;;;;;;;;;;9.63;80.08;102692.28;5051772;28;1322;-72
2023/05/30 05:00:22;;;;;;;;;;;;;;;9.63;80.05;102692.28;5059595;28;1495;-72
2023/05/30 05:02:47;;;;;;;;;;;;;;;9.62;80.37;102695.81;5054890;28;1308;-74
2023/05/30 05:05:13;;;;;;;;;;;;;;;9.62;79.84;102683.69;5048964;28;1197;-70
2023/05/30 05:07:38;;;;;;;;;;;;;;;9.67;80.13;102686.06;5047653;28;1232;-72
2023/05/30 05:10:03;;;;;;;;;;;;;;;9.66;80.27;102685.22;5049308;28;1969;-72
2023/05/30 05:12:29;;;;;;;;;;;;;;;9.71;80.13;102691.03;5032201;28;1393;-71
2023/05/30 05:14:54;;;;;;;;;;;;;;;9.75;80.18;102683.97;5055308;28;1201;-73
2023/05/30 05:17:19;;;;;;;;;;;;;;;9.73;80.02;102685.75;5053234;28;1256;-74
2023/05/30 05:19:45;;;;;;;;;;;;;;;9.74;79.85;102682.25;5053268;28;1384;-72
2023/05/30 05:22:10;;;;;;;;;;;;;;;9.76;80.26;102685.63;5054881;28;1284;-72
2023/05/30 05:24:35;;;;;;;;;;;;;;;9.77;79.93;102689.91;5054120;28;1293;-71
2023/05/30 05:27:01;;;;;;;;;;;;;;;9.81;79.73;102686.25;5052996;28;1527;-72
2023/05/30 05:29:26;;;;;;;;;;;;;;;9.85;79.77;102695.53;5054066;28;1898;-74
2023/05/30 05:31:51;;;;;;;;;;;;;;;9.90;79.37;102690.13;5054006;28;1375;-72
2023/05/30 05:34:16;;;;;;;;;;;;;;;9.95;79.48;102691.59;5057165;28;1324;-72
2023/05/30 05:36:45;;;;;;;;;;;;;;;9.97;79.18;102694.94;5030437;28;1599;-72
2023/05/30 05:39:10;;;;;;;;;;;;;;;10.03;78.98;102689.44;5048153;28;1179;-72
2023/05/30 05:41:35;;;;;;;;;;;;;;;10.05;79.26;102695.41;5046368;28;1269;-73
2023/05/30 05:44:01;;;;;;;;;;;;;;;10.07;79.67;102693.56;5055513;28;1448;-72
2023/05/30 05:46:26;;;;;;;;;;;;;;;10.06;79.01;102699.69;5052769;28;1185;-71
2023/05/30 05:48:54;;;;;;;;;;;;;;;10.13;78.46;102700.22;5054591;28;1111;-72
2023/05/30 05:51:19;;;;;;;;;;;;;;;10.15;79.33;102702.72;5051092;28;1902;-71
2023/05/30 05:53:44;;;;;;;;;;;;;;;10.10;78.29;102706.41;5036088;28;1590;-72
2023/05/30 05:56:09;;;;;;;;;;;;;;;10.10;78.66;102703.81;5049940;28;1269;-72
2023/05/30 05:58:35;;;;;;;;;;;;;;;10.14;78.09;102707.06;5052367;28;1300;-72
2023/05/30 06:01:00;;;;;;;;;;;;;;;10.17;77.81;102695.72;5052688;28;1278;-73
2023/05/30 06:03:25;;;;;;;;;;;;;;;10.18;77.40;102697.38;5055134;28;1272;-71
2023/05/30 06:05:51;;;;;;;;;;;;;;;10.19;77.74;102693.88;5048402;28;1201;-72
2023/05/30 06:08:16;;;;;;;;;;;;;;;10.16;77.36;102699.22;5047277;28;1407;-72
2023/05/30 06:10:41;;;;;;;;;;;;;;;10.20;77.91;102705.91;5038049;28;1930;-73
2023/05/30 06:13:07;;;;;;;;;;;;;;;10.21;77.67;102702.44;5054001;28;1650;-72
2023/05/30 06:15:32;;;;;;;;;;;;;;;10.24;77.31;102707.47;5053175;28;994;-72
2023/05/30 06:17:57;;;;;;;;;;;;;;;10.28;76.73;102709.03;5047237;28;1093;-74
2023/05/30 06:20:22;;;;;;;;;;;;;;;10.33;77.14;102702.69;5034224;28;1477;-72
2023/05/30 06:22:48;;;;;;;;;;;;;;;10.37;77.04;102708.53;5034505;28;1290;-71
2023/05/30 06:25:13;;;;;;;;;;;;;;;10.44;77.05;102704.75;5053108;28;1147;-72
2023/05/30 06:27:38;;;;;;;;;;;;;;;10.48;76.38;102701.06;5051661;28;1222;-72
2023/05/30 06:30:05;;;;;;;;;;;;;;;10.52;76.28;102692.19;5038467;28;1960;-72
2023/05/30 06:32:31;;;;;;;;;;;;;;;10.55;76.44;102694.66;5032339;28;1298;-71
2023/05/30 06:34:56;;;;;;;;;;;;;;;10.58;75.94;102707.44;5040370;28;1144;-71
2023/05/30 06:37:21;;;;;;;;;;;;;;;10.60;75.89;102695.22;5056890;28;1101;-71
2023/05/30 06:39:46;;;;;;;;;;;;;;;10.61;75.71;102699.53;5038898;28;1285;-71
2023/05/30 06:42:11;;;;;;;;;;;;;;;10.64;75.51;102699.34;5062304;28;1073;-71
2023/05/30 06:44:37;;;;;;;;;;;;;;;10.63;75.18;102704.63;5040001;28;1195;-72
2023/05/30 06:47:02;;;;;;;;;;;;;;;10.69;75.81;102703.47;5061454;28;1098;-72
2023/05/30 06:49:27;;;;;;;;;;;;;;;10.75;75.48;102703.97;5057014;28;1120;-72
2023/05/30 06:51:52;;;;;;;;;;;;;;;10.78;75.28;102714.22;5058592;28;1973;-71
2023/05/30 06:54:18;;;;;;;;;;;;;;;10.84;74.76;102707.88;5038703;28;1286;-72
2023/05/30 06:56:43;;;;;;;;;;;;;;;10.89;74.84;102718.81;5058242;28;1116;-71
2023/05/30 06:59:08;;;;;;;;;;;;;;;10.93;74.72;102720.34;5056746;28;1080;-71
2023/05/30 07:01:33;;;;;;;;;;;;;;;11.00;74.50;102724.28;5049702;28;1450;-72
2023/05/30 07:03:58;;;;;;;;;;;;;;;11.07;74.88;102723.06;5046515;28;1229;-72
2023/05/30 07:06:24;;;;;;;;;;;;;;;11.14;74.90;102714.00;5045989;28;1253;-70
2023/05/30 07:08:50;;;;;;;;;;;;;;;11.21;75.14;102711.09;5049921;28;989;-71
2023/05/30 07:11:15;;;;;;;;;;;;;;;11.23;74.25;102720.47;5033199;28;1969;-72
2023/05/30 07:13:40;;;;;;;;;;;;;;;11.32;73.66;102719.13;5035228;28;1185;-73
2023/05/30 07:16:05;;;;;;;;;;;;;;;11.33;73.89;102715.63;5048032;28;1253;-74
2023/05/30 07:18:30;;;;;;;;;;;;;;;11.38;74.48;102719.63;5047056;28;1320;-73
2023/05/30 07:20:56;;;;;;;;;;;;;;;11.44;73.65;102723.66;5049437;28;1249;-71
2023/05/30 07:23:22;;;;;;;;;;;;;;;11.49;73.91;102721.66;5043864;28;1606;-74
2023/05/30 07:25:47;;;;;;;;;;;;;;;11.54;73.25;102721.41;5032665;28;1276;-71
2023/05/30 07:28:12;;;;;;;;;;;;;;;11.58;73.52;102721.13;5052594;28;1255;-71
2023/05/30 07:30:37;;;;;;;;;;;;;;;11.63;72.06;102724.31;5053312;28;1973;-72
2023/05/30 07:33:02;;;;;;;;;;;;;;;11.61;72.13;102731.38;5050473;28;1249;-74
2023/05/30 07:35:28;;;;;;;;;;;;;;;11.68;73.06;102730.09;5054095;28;1264;-73
2023/05/30 07:37:53;;;;;;;;;;;;;;;11.74;73.28;102725.47;5035407;28;1168;-73
2023/05/30 07:40:18;;;;;;;;;;;;;;;11.75;72.90;102714.16;5044885;28;1224;-72
2023/05/30 07:42:44;;;;;;;;;;;;;;;11.77;71.93;102715.75;5054126;28;1057;-72
2023/05/30 07:45:09;;;;;;;;;;;;;;;11.70;71.19;102720.47;5039729;28;1367;-73
2023/05/30 07:47:35;;;;;;;;;;;;;;;11.67;72.27;102725.81;5038275;28;1385;-72
2023/05/30 07:50:00;;;;;;;;;;;;;;;11.63;70.86;102724.31;5036123;28;1890;-74
2023/05/30 07:52:26;;;;;;;;;;;;;;;11.61;70.92;102733.13;5057224;28;1288;-72
2023/05/30 07:54:51;;;;;;;;;;;;;;;11.63;71.82;102733.88;5043605;28;1227;-74
2023/05/30 07:57:16;;;;;;;;;;;;;;;11.65;71.52;102727.69;5024007;28;1296;-72
2023/05/30 07:59:42;;;;;;;;;;;;;;;11.81;72.38;102721.59;5055485;28;1503;-72
2023/05/30 08:02:07;;;;;;;;;;;;;;;11.95;71.86;102727.72;5044524;28;1305;-74
2023/05/30 08:04:32;;;;;;;;;;;;;;;11.98;71.23;102718.91;5045394;28;1237;-72
2023/05/30 08:06:58;;;;;;;;;;;;;;;11.99;71.44;102723.22;5045575;28;1053;-72
2023/05/30 08:09:23;;;;;;;;;;;;;;;12.02;70.81;102715.22;5054866;28;1280;-72
2023/05/30 08:11:48;;;;;;;;;;;;;;;12.03;70.89;102710.84;5033656;28;1948;-74
2023/05/30 08:14:13;;;;;;;;;;;;;;;12.11;70.76;102709.50;5033103;28;1381;-72
2023/05/30 08:16:39;;;;;;;;;;;;;;;12.22;71.29;102699.31;5064383;28;1124;-72
2023/05/30 08:19:04;;;;;;;;;;;;;;;12.40;70.57;102709.56;5036399;28;1437;-73
2023/05/30 08:21:31;;;;;;;;;;;;;;;12.47;69.79;102705.66;5061113;28;1065;-73
2023/05/30 08:23:57;;;;;;;;;;;;;;;12.56;71.06;102699.91;5049011;28;1252;-72
2023/05/30 08:26:24;;;;;;;;;;;;;;;12.68;70.46;102704.38;5059185;28;1077;-72
2023/05/30 08:28:49;;;;;;;;;;;;;;;12.72;69.41;102700.63;5065164;28;1111;-72
2023/05/30 08:31:15;;;;;;;;;;;;;;;12.75;69.64;102695.25;5038794;28;1968;-74
2023/05/30 08:33:40;;;;;;;;;;;;;;;12.86;69.41;102692.00;5042461;28;1284;-72
2023/05/30 08:36:06;;;;;;;;;;;;;;;12.93;67.74;102692.44;5053601;28;1055;-73
2023/05/30 08:38:31;;;;;;;;;;;;;;;12.86;66.60;102696.38;5054630;28;1271;-74
2023/05/30 08:40:56;;;;;;;;;;;;;;;12.91;68.48;102694.31;5061274;28;1118;-72
2023/05/30 08:43:21;;;;;;;;;;;;;;;13.06;68.27;102692.53;5040851;28;1151;-72
2023/05/30 08:45:47;;;;;;;;;;;;;;;13.29;67.57;102686.72;5057554;28;1067;-72
2023/05/30 08:48:16;;;;;;;;;;;;;;;13.39;67.06;102685.22;5062938;28;1090;-72
2023/05/30 08:50:42;;;;;;;;;;;;;;;13.46;67.51;102686.50;5051277;28;1956;-73
2023/05/30 08:53:08;;;;;;;;;;;;;;;13.64;67.44;102688.84;5048021;28;1176;-74
2023/05/30 08:55:54;;;;;;;;;;;;;;;13.75;65.89;102679.38;5027369;28;1259;-74
2023/05/30 08:58:25;;;;;;;;;;;;;;;13.88;66.63;102686.41;5048215;28;1175;-72
2023/05/30 09:00:52;;;;;;;;;;;;;;;13.99;65.16;102673.50;5032184;28;1101;-72
2023/05/30 09:03:18;;;;;;;;;;;;;;;14.06;64.70;102686.03;5049117;28;1324;-72
2023/05/30 09:05:45;;;;;;;;;;;;;;;14.14;64.49;102677.69;5050057;28;1331;-72
2023/05/30 09:08:12;;;;;;;;;;;;;;;14.27;65.18;102678.53;5052914;28;1510;-74
2023/05/30 09:10:37;;;;;;;;;;;;;;;14.40;64.80;102672.50;5046993;28;1975;-74
2023/05/30 09:13:02;;;;;;;;;;;;;;;14.52;64.94;102662.06;5032871;28;1366;-73
2023/05/30 09:15:28;;;;;;;;;;;;;;;14.65;62.76;102666.44;5048915;28;1166;-73
2023/05/30 09:17:53;;;;;;;;;;;;;;;14.72;62.84;102663.28;5043569;28;1106;-73
2023/05/30 09:20:20;;;;;;;;;;;;;;;14.73;62.21;102670.16;5051360;28;1126;-74
2023/05/30 09:22:45;;;;;;;;;;;;;;;14.75;60.82;102660.47;5048011;28;1281;-75
2023/05/30 09:25:12;;;;;;;;;;;;;;;14.71;61.35;102669.47;5054367;28;1265;-73
2023/05/30 09:27:38;;;;;;;;;;;;;;;14.77;63.05;102665.59;5055706;28;1249;-73
2023/05/30 09:30:07;;;;;;;;;;;;;;;14.83;62.42;102665.97;5041819;28;1906;-72
2023/05/30 09:32:34;;;;;;;;;;;;;;;15.00;60.63;102663.97;5053147;28;1253;-74
2023/05/30 09:35:02;;;;;;;;;;;;;;;15.09;62.63;102663.31;5047336;28;1264;-72
2023/05/30 09:37:34;;;;;;;;;;;;;;;15.18;62.20;102654.78;5049064;28;1209;-74
2023/05/30 09:40:06;;;;;;;;;;;;;;;15.28;61.29;102650.59;5050823;28;1763;-73
2023/05/30 09:42:49;;;;;;;;;;;;;;;15.32;60.64;102648.59;5053713;28;1312;-73
2023/05/30 09:45:16;;;;;;;;;;;;;;;15.36;60.64;102648.22;5031403;28;1575;-73
2023/05/30 09:47:42;;;;;;;;;;;;;;;15.44;60.51;102644.25;5056999;28;1021;-74
2023/05/30 09:50:08;;;;;;;;;;;;;;;15.56;60.82;102638.94;5045361;28;1918;-73
2023/05/30 09:52:33;;;;;;;;;;;;;;;15.78;60.95;102638.22;5032441;28;1455;-73
2023/05/30 09:54:59;;;;;;;;;;;;;;;15.81;58.51;102643.19;5060580;28;1136;-72
2023/05/30 09:57:25;;;;;;;;;;;;;;;15.90;59.56;102637.28;5058665;28;1319;-72
2023/05/30 09:59:50;;;;;;;;;;;;;;;16.00;59.72;102631.34;5056710;28;1553;-73
2023/05/30 10:02:22;;;;;;;;;;;;;;;16.12;60.09;102635.66;5051232;28;1240;-72
2023/05/30 10:04:50;;;;;;;;;;;;;;;16.13;58.54;102637.34;5040326;28;1261;-72
2023/05/30 10:07:16;;;;;;;;;;;;;;;16.07;58.25;102632.56;5029782;28;1297;-72
2023/05/30 10:09:42;;;;;;;;;;;;;;;15.97;56.57;102631.59;5037837;28;1997;-73
2023/05/30 10:12:07;;;;;;;;;;;;;;;15.89;57.66;102625.16;5046632;28;1186;-74
2023/05/30 10:14:34;;;;;;;;;;;;;;;15.91;58.67;102628.50;5048898;28;1447;-73
2023/05/30 10:17:00;;;;;;;;;;;;;;;16.07;57.06;102628.16;5032604;28;1216;-72
2023/05/30 10:19:29;;;;;;;;;;;;;;;16.24;58.21;102619.03;5029748;28;1209;-72
2023/05/30 10:21:55;;;;;;;;;;;;;;;16.48;58.37;102625.94;5049090;28;1090;-72
2023/05/30 10:24:21;;;;;;;;;;;;;;;16.63;55.64;102625.56;5023657;28;1671;-73
2023/05/30 10:26:48;;;;;;;;;;;;;;;16.67;56.42;102620.91;5032591;28;1558;-72
2023/05/30 10:29:14;;;;;;;;;;;;;;;16.69;54.92;102624.25;5026680;28;1525;-72
2023/05/30 10:31:40;;;;;;;;;;;;;;;16.84;56.77;102623.03;5054028;28;1950;-72
2023/05/30 10:34:07;;;;;;;;;;;;;;;16.93;55.58;102627.56;5037740;28;1172;-73
2023/05/30 10:36:34;;;;;;;;;;;;;;;16.99;55.86;102621.00;5058411;28;908;-73
2023/05/30 10:39:28;;;;;;;;;;;;;;;17.04;56.02;102618.00;5048708;28;1144;-73
2023/05/30 10:42:00;;;;;;;;;;;;;;;17.10;55.39;102628.00;5054699;28;1285;-72
2023/05/30 10:44:44;;;;;;;;;;;;;;;17.16;54.69;102623.09;5052315;28;1187;-74
2023/05/30 10:47:15;;;;;;;;;;;;;;;17.28;55.58;102615.19;5042316;28;1472;-73
2023/05/30 10:49:40;;;;;;;;;;;;;;;17.32;55.06;102609.56;5043646;28;1964;-73
2023/05/30 10:52:06;;;;;;;;;;;;;;;17.29;53.72;102608.97;5055374;28;1092;-73
2023/05/30 10:54:33;;;;;;;;;;;;;;;17.33;54.88;102605.97;5058325;28;1251;-72
2023/05/30 10:56:58;;;;;;;;;;;;;;;17.42;55.55;102607.84;5057579;28;1311;-73
2023/05/30 10:59:24;;;;;;;;;;;;;;;17.55;55.06;102612.06;5041040;28;1280;-73
2023/05/30 11:02:00;;;;;;;;;;;;;;;17.70;54.63;102610.78;5056066;28;1499;-73
2023/05/30 11:04:37;;;;;;;;;;;;;;;17.79;54.66;102612.69;5039834;28;1434;-73
2023/05/30 11:07:04;;;;;;;;;;;;;;;17.94;52.98;102605.31;5059346;28;1613;-72
2023/05/30 11:09:29;;;;;;;;;;;;;;;18.02;54.75;102601.06;5057322;28;1121;-73
2023/05/30 11:11:55;;;;;;;;;;;;;;;18.19;54.62;102606.69;5060632;28;1953;-73
2023/05/30 11:14:25;;;;;;;;;;;;;;;18.25;53.16;102593.84;5056465;28;1196;-72
2023/05/30 11:16:56;;;;;;;;;;;;;;;18.13;52.20;102591.47;5046781;28;1025;-75
2023/05/30 11:19:33;;;;;;;;;;;;;;;18.02;51.62;102585.31;5060818;28;1276;-73
2023/05/30 11:22:03;;;;;;;;;;;;;;;18.08;53.09;102583.97;5052043;28;1145;-73
2023/05/30 11:24:29;;;;;;;;;;;;;;;18.10;51.88;102586.47;5045832;28;1311;-73
2023/05/30 11:26:56;;;;;;;;;;;;;;;18.19;53.15;102586.50;5057102;28;1002;-72
2023/05/30 11:29:31;;;;;;;;;;;;;;;18.33;52.01;102577.41;5064320;28;1119;-73
2023/05/30 11:31:56;;;;;;;;;;;;;;;18.52;51.59;102581.91;5043259;28;1906;-73
2023/05/30 11:34:22;;;;;;;;;;;;;;;18.54;50.94;102583.44;5061064;28;1454;-72
2023/05/30 11:36:48;;;;;;;;;;;;;;;18.58;51.52;102570.88;5051981;28;1084;-73
2023/05/30 11:39:13;;;;;;;;;;;;;;;18.67;52.03;102574.47;5052885;28;1002;-74
2023/05/30 11:41:38;;;;;;;;;;;;;;;18.82;51.34;102557.38;5054757;28;1032;-72
2023/05/30 11:44:04;;;;;;;;;;;;;;;18.90;50.61;102562.78;5035311;28;1135;-73
2023/05/30 11:46:29;;;;;;;;;;;;;;;18.89;49.19;102569.00;5045851;28;1475;-73
2023/05/30 11:48:57;;;;;;;;;;;;;;;18.87;51.01;102565.69;5048157;28;1487;-73
2023/05/30 11:51:22;;;;;;;;;;;;;;;18.97;50.49;102561.25;5060147;28;1890;-73
2023/05/30 11:53:48;;;;;;;;;;;;;;;19.08;50.31;102561.13;5047465;28;1025;-74
2023/05/30 11:56:14;;;;;;;;;;;;;;;19.15;48.92;102555.28;5055746;28;962;-72
2023/05/30 11:58:39;;;;;;;;;;;;;;;19.05;48.90;102558.78;5053677;28;1154;-73
2023/05/30 12:01:05;;;;;;;;;;;;;;;19.11;50.13;102554.75;5044139;28;1336;-74
2023/05/30 12:03:31;;;;;;;;;;;;;;;19.23;49.72;102547.56;5060778;28;1402;-73
2023/05/30 12:05:57;;;;;;;;;;;;;;;19.24;49.12;102541.31;5057443;28;950;-74
2023/05/30 12:08:24;;;;;;;;;;;;;;;19.24;49.46;102536.06;5059651;28;1147;-75
2023/05/30 12:10:50;;;;;;;;;;;;;;;19.20;47.67;102545.19;5035504;28;1960;-72
2023/05/30 12:13:16;;;;;;;;;;;;;;;19.21;49.68;102536.31;5057709;28;1088;-73
2023/05/30 12:15:42;;;;;;;;;;;;;;;19.17;48.96;102540.22;5061217;28;1096;-74
2023/05/30 12:18:08;;;;;;;;;;;;;;;19.09;48.62;102539.09;5036370;28;1295;-73
2023/05/30 12:20:41;;;;;;;;;;;;;;;19.18;49.92;102526.94;5030883;28;1264;-74
2023/05/30 12:23:06;;;;;;;;;;;;;;;19.23;49.78;102532.59;5035307;28;1322;-72
2023/05/30 12:25:32;;;;;;;;;;;;;;;19.34;49.86;102526.34;5033688;28;1259;-73
2023/05/30 12:27:57;;;;;;;;;;;;;;;19.45;50.65;102520.94;5046623;28;1437;-73
2023/05/30 12:30:23;;;;;;;;;;;;;;;19.60;49.72;102527.41;5022525;28;1965;-72
2023/05/30 12:32:48;;;;;;;;;;;;;;;19.60;49.38;102522.16;5040268;28;1209;-72
2023/05/30 12:35:15;;;;;;;;;;;;;;;19.63;48.53;102519.25;5032681;28;1351;-72
2023/05/30 12:37:40;;;;;;;;;;;;;;;19.72;48.83;102524.63;5050526;28;1325;-74
2023/05/30 12:40:06;;;;;;;;;;;;;;;19.75;49.28;102521.72;5055464;28;1162;-72
2023/05/30 12:42:31;;;;;;;;;;;;;;;19.83;49.22;102511.28;5050347;28;1190;-72
2023/05/30 12:45:04;;;;;;;;;;;;;;;19.81;48.82;102524.59;5052825;28;1125;-72